createdAt,value
2018-11-01T00:00:19.755Z,99.90
2018-11-01T00:02:48.752Z,99.90
2018-11-01T00:05:17.677Z,99.90
2018-11-01T00:07:46.552Z,99.90
2018-11-01T00:10:15.251Z,99.90
2018-11-01T00:12:44.327Z,99.90
2018-11-01T00:15:13.965Z,99.90
2018-11-01T00:17:42.407Z,99.90
2018-11-01T00:20:12.861Z,99.90
2018-11-01T00:22:42.032Z,99.90
2018-11-01T00:25:11.876Z,99.90
2018-11-01T00:27:41.044Z,99.90
2018-11-01T00:30:10.080Z,99.90
2018-11-01T00:32:38.592Z,99.90
2018-11-01T00:35:08.104Z,99.90
2018-11-01T00:37:36.576Z,99.90
2018-11-01T00:40:08.481Z,99.90
2018-11-01T00:42:37.052Z,99.90
2018-11-01T00:45:07.201Z,99.90
2018-11-01T00:47:35.859Z,99.90
2018-11-01T00:50:04.576Z,99.90
2018-11-01T00:52:33.032Z,99.90
2018-11-01T00:55:01.517Z,99.90
2018-11-01T00:57:29.980Z,99.90
2018-11-01T00:59:58.485Z,99.90
2018-11-01T01:02:26.939Z,99.90
2018-11-01T01:04:55.429Z,99.90
2018-11-01T01:07:23.876Z,99.90
2018-11-01T01:09:52.328Z,99.90
2018-11-01T01:12:20.804Z,99.90
2018-11-01T01:14:49.249Z,99.90
2018-11-01T01:17:17.725Z,99.90
2018-11-01T01:19:46.165Z,99.90
2018-11-01T01:22:14.653Z,99.90
2018-11-01T01:24:43.109Z,99.90
2018-11-01T01:27:11.584Z,99.90
2018-11-01T01:29:40.024Z,99.90
2018-11-01T01:32:08.556Z,99.90
2018-11-01T01:34:37.056Z,99.90
2018-11-01T01:37:05.526Z,99.90
2018-11-01T01:39:33.959Z,99.90
2018-11-01T01:42:02.440Z,99.90
2018-11-01T01:44:30.884Z,99.90
2018-11-01T01:46:59.363Z,99.90
2018-11-01T01:49:27.812Z,99.90
2018-11-01T01:51:56.284Z,99.90
2018-11-01T01:54:24.737Z,99.90
2018-11-01T01:59:35.469Z,99.90
2018-11-01T02:02:04.133Z,99.90
2018-11-01T02:04:32.589Z,99.90
2018-11-01T02:07:01.073Z,99.90
2018-11-01T02:09:29.528Z,99.90
2018-11-01T02:11:58.005Z,99.90
2018-11-01T02:14:26.465Z,99.90
2018-11-01T02:16:54.957Z,99.90
2018-11-01T02:19:23.414Z,99.90
2018-11-01T02:21:51.898Z,99.90
2018-11-01T02:24:20.368Z,99.90
2018-11-01T02:26:48.853Z,99.90
2018-11-01T02:29:17.316Z,99.90
2018-11-01T02:31:45.834Z,99.90
2018-11-01T02:34:14.294Z,99.90
2018-11-01T02:36:42.780Z,99.90
2018-11-01T02:39:12.261Z,99.90
2018-11-01T02:41:41.188Z,99.90
2018-11-01T02:44:10.449Z,99.90
2018-11-01T02:46:38.977Z,99.90
2018-11-01T02:49:08.136Z,99.90
2018-11-01T02:51:36.622Z,99.90
2018-11-01T02:54:05.509Z,99.90
2018-11-01T02:56:33.996Z,99.90
2018-11-01T02:59:02.460Z,99.90
2018-11-01T03:01:30.961Z,99.90
2018-11-01T03:03:59.425Z,99.90
2018-11-01T03:06:27.884Z,99.90
2018-11-01T03:08:56.364Z,99.90
2018-11-01T03:11:24.832Z,99.90
2018-11-01T03:13:53.308Z,99.90
2018-11-01T03:16:21.773Z,99.90
2018-11-01T03:18:50.257Z,99.90
2018-11-01T03:21:18.740Z,99.90
2018-11-01T03:23:47.281Z,99.90
2018-11-01T03:26:15.803Z,99.90
2018-11-01T03:28:44.299Z,99.90
2018-11-01T03:31:12.809Z,99.90
2018-11-01T03:33:41.317Z,99.90
2018-11-01T03:36:09.785Z,99.90
2018-11-01T03:38:38.360Z,99.90
2018-11-01T03:41:07.161Z,99.90
2018-11-01T03:43:35.656Z,99.90
2018-11-01T03:46:04.417Z,99.90
2018-11-01T03:48:32.924Z,99.90
2018-11-01T03:51:01.413Z,99.90
2018-11-01T03:53:30.059Z,99.90
2018-11-01T03:55:58.420Z,99.90
2018-11-01T03:58:26.921Z,99.90
2018-11-01T04:00:55.405Z,99.90
2018-11-01T04:03:23.917Z,99.90
2018-11-01T04:05:52.417Z,99.90
2018-11-01T04:08:21.053Z,99.90
2018-11-01T04:10:49.537Z,99.90
2018-11-01T04:13:18.048Z,99.90
2018-11-01T04:15:46.801Z,99.90
2018-11-01T04:18:15.316Z,99.90
2018-11-01T04:20:43.805Z,99.90
2018-11-01T04:23:12.329Z,99.90
2018-11-01T04:25:40.870Z,99.90
2018-11-01T04:28:09.337Z,99.90
2018-11-01T04:30:37.825Z,99.90
2018-11-01T04:33:06.405Z,99.90
2018-11-01T04:35:34.911Z,99.90
2018-11-01T04:38:03.415Z,99.90
2018-11-01T04:40:31.990Z,99.90
2018-11-01T04:43:00.427Z,99.90
2018-11-01T04:45:28.952Z,99.90
2018-11-01T04:47:57.574Z,99.90
2018-11-01T04:50:25.980Z,99.90
2018-11-01T04:52:54.474Z,99.90
2018-11-01T04:55:22.980Z,99.90
2018-11-01T04:57:51.461Z,99.90
2018-11-01T05:00:19.989Z,99.90
2018-11-01T05:02:48.464Z,99.90
2018-11-01T05:05:16.972Z,99.90
2018-11-01T05:07:45.444Z,99.90
2018-11-01T05:10:13.948Z,99.90
2018-11-01T05:12:42.482Z,99.90
2018-11-01T05:15:11.019Z,99.90
2018-11-01T05:17:39.880Z,99.90
2018-11-01T05:20:10.088Z,99.90
2018-11-01T05:22:38.665Z,99.90
2018-11-01T05:25:07.620Z,99.90
2018-11-01T05:27:36.133Z,99.90
2018-11-01T05:30:05.994Z,99.90
2018-11-01T05:32:34.493Z,99.90
2018-11-01T05:35:03.021Z,99.90
2018-11-01T05:37:31.493Z,99.90
2018-11-01T05:40:00.021Z,99.90
2018-11-01T05:42:29.772Z,99.90
2018-11-01T05:44:58.276Z,99.90
2018-11-01T05:47:26.750Z,99.90
2018-11-01T05:49:55.262Z,99.90
2018-11-01T05:52:23.732Z,99.90
2018-11-01T05:54:52.264Z,99.90
2018-11-01T05:57:20.754Z,99.90
2018-11-01T05:59:49.582Z,99.90
2018-11-01T06:02:21.360Z,99.90
2018-11-01T06:04:49.925Z,99.90
2018-11-01T06:07:22.610Z,99.90
2018-11-01T06:09:51.125Z,99.90
2018-11-01T06:12:19.696Z,99.90
2018-11-01T06:14:48.137Z,99.90
2018-11-01T06:17:16.635Z,99.90
2018-11-01T06:19:45.140Z,99.90
2018-11-01T06:22:13.633Z,99.90
2018-11-01T06:24:42.137Z,99.90
2018-11-01T06:27:10.636Z,99.90
2018-11-01T06:29:39.149Z,99.90
2018-11-01T06:32:07.653Z,99.90
2018-11-01T06:34:39.476Z,99.90
2018-11-01T06:37:07.957Z,99.90
2018-11-01T06:39:36.469Z,99.90
2018-11-01T06:42:05.142Z,99.90
2018-11-01T06:44:33.686Z,99.90
2018-11-01T06:47:02.165Z,99.90
2018-11-01T06:49:30.677Z,99.90
2018-11-01T06:51:59.160Z,99.90
2018-11-01T06:54:27.668Z,99.90
2018-11-01T06:56:56.153Z,99.90
2018-11-01T06:59:24.788Z,99.90
2018-11-01T07:01:53.188Z,99.90
2018-11-01T07:04:21.696Z,99.90
2018-11-01T07:06:50.168Z,99.90
2018-11-01T07:09:18.648Z,99.90
2018-11-01T07:11:47.160Z,99.90
2018-11-01T07:14:15.645Z,99.90
2018-11-01T07:16:44.157Z,99.90
2018-11-01T07:19:12.641Z,99.90
2018-11-01T07:21:41.156Z,99.90
2018-11-01T07:24:09.656Z,99.90
2018-11-01T07:26:38.141Z,99.90
2018-11-01T07:29:06.693Z,99.90
2018-11-01T07:31:35.211Z,99.90
2018-11-01T07:34:03.709Z,99.90
2018-11-01T07:36:32.217Z,99.90
2018-11-01T07:39:00.701Z,99.90
2018-11-01T07:41:29.228Z,99.90
2018-11-01T07:43:57.705Z,99.90
2018-11-01T07:46:26.211Z,99.90
2018-11-01T07:48:54.697Z,99.90
2018-11-01T07:51:23.205Z,99.90
2018-11-01T07:53:51.700Z,99.90
2018-11-01T07:56:20.236Z,99.90
2018-11-01T07:58:48.744Z,99.90
2018-11-01T08:01:17.270Z,99.90
2018-11-01T08:03:45.756Z,99.90
2018-11-01T08:06:14.261Z,99.90
2018-11-01T08:08:42.741Z,99.90
2018-11-01T08:11:11.249Z,99.90
2018-11-01T08:13:39.716Z,99.90
2018-11-01T08:16:08.593Z,99.90
2018-11-01T08:18:37.282Z,99.90
2018-11-01T08:21:06.646Z,99.90
2018-11-01T08:23:35.185Z,99.90
2018-11-01T08:26:03.700Z,99.90
2018-11-01T08:28:32.186Z,99.90
2018-11-01T08:31:00.743Z,99.90
2018-11-01T08:33:29.249Z,99.90
2018-11-01T08:35:57.795Z,99.90
2018-11-01T08:38:26.279Z,99.90
2018-11-01T08:40:54.792Z,99.90
2018-11-01T08:43:23.277Z,99.90
2018-11-01T08:45:51.790Z,99.90
2018-11-01T08:48:20.289Z,99.90
2018-11-01T08:50:48.797Z,99.90
2018-11-01T08:53:17.311Z,99.90
2018-11-01T08:55:45.809Z,99.90
2018-11-01T08:58:14.320Z,99.90
2018-11-01T09:00:42.793Z,99.90
2018-11-01T09:03:11.289Z,99.90
2018-11-01T09:05:39.769Z,99.90
2018-11-01T09:08:08.403Z,99.90
2018-11-01T09:10:36.819Z,99.90
2018-11-01T09:13:05.326Z,99.90
2018-11-01T09:15:33.805Z,99.90
2018-11-01T09:18:02.308Z,99.90
2018-11-01T09:20:30.821Z,99.90
2018-11-01T09:22:59.325Z,99.90
2018-11-01T09:25:27.832Z,99.90
2018-11-01T09:27:56.346Z,99.90
2018-11-01T09:30:24.836Z,99.90
2018-11-01T09:32:53.368Z,99.90
2018-11-01T09:35:21.865Z,99.90
2018-11-01T09:37:50.372Z,99.90
2018-11-01T09:40:18.849Z,99.90
2018-11-01T09:42:47.570Z,99.90
2018-11-01T09:45:16.064Z,99.90
2018-11-01T09:47:44.809Z,99.90
2018-11-01T09:50:13.108Z,99.90
2018-11-01T09:52:41.626Z,99.90
2018-11-01T09:55:10.109Z,99.90
2018-11-01T09:57:38.624Z,99.90
2018-11-01T10:00:09.480Z,99.90
2018-11-01T10:02:38.045Z,99.90
2018-11-01T10:05:07.469Z,99.90
2018-11-01T10:07:36.197Z,99.90
2018-11-01T10:10:05.932Z,99.90
2018-11-01T10:12:34.453Z,99.90
2018-11-01T10:15:03.026Z,99.90
2018-11-01T10:17:31.889Z,99.90
2018-11-01T10:20:00.009Z,99.90
2018-11-01T10:22:28.626Z,99.90
2018-11-01T10:24:57.129Z,99.90
2018-11-01T10:27:25.771Z,99.90
2018-11-01T10:29:54.373Z,99.90
2018-11-01T10:32:22.933Z,99.90
2018-11-01T10:34:51.520Z,99.90
2018-11-01T10:37:20.084Z,99.90
2018-11-01T10:39:48.593Z,99.90
2018-11-01T10:42:17.108Z,99.90
2018-11-01T10:44:45.629Z,99.90
2018-11-01T10:47:14.151Z,99.90
2018-11-01T10:49:42.633Z,99.90
2018-11-01T10:52:11.141Z,99.90
2018-11-01T10:54:39.675Z,99.90
2018-11-01T10:57:08.193Z,99.90
2018-11-01T10:59:36.665Z,99.90
2018-11-01T11:02:11.188Z,99.90
2018-11-01T11:04:40.149Z,99.90
2018-11-01T11:07:08.738Z,99.90
2018-11-01T11:09:37.217Z,99.90
2018-11-01T11:12:06.221Z,99.90
2018-11-01T11:14:34.791Z,99.90
2018-11-01T11:17:03.287Z,99.90
2018-11-01T11:19:31.760Z,99.90
2018-11-01T11:22:00.286Z,99.90
2018-11-01T11:24:28.768Z,99.90
2018-11-01T11:26:57.299Z,99.90
2018-11-01T11:29:25.784Z,99.90
2018-11-01T11:31:54.342Z,99.90
2018-11-01T11:34:22.829Z,99.90
2018-11-01T11:36:51.353Z,99.90
2018-11-01T11:39:19.963Z,99.90
2018-11-01T11:41:48.455Z,99.90
2018-11-01T11:44:17.017Z,99.90
2018-11-01T11:46:45.541Z,99.90
2018-11-01T11:49:14.161Z,99.90
2018-11-01T11:51:42.644Z,99.90
2018-11-01T11:54:11.169Z,99.90
2018-11-01T11:56:39.665Z,99.40
2018-11-01T11:59:08.197Z,97.70
2018-11-01T12:01:36.681Z,96.40
2018-11-01T12:04:05.324Z,96.20
2018-11-01T12:06:33.813Z,96.90
2018-11-01T12:09:02.385Z,96.70
2018-11-01T12:11:30.896Z,96.40
2018-11-01T12:13:59.424Z,98.00
2018-11-01T12:16:27.912Z,99.90
2018-11-01T12:18:56.421Z,99.90
2018-11-01T12:21:24.908Z,99.90
2018-11-01T12:23:53.464Z,99.90
2018-11-01T12:26:21.961Z,99.90
2018-11-01T12:28:50.540Z,99.90
2018-11-01T12:31:19.017Z,99.90
2018-11-01T12:33:47.576Z,99.90
2018-11-01T12:36:16.181Z,99.90
2018-11-01T12:38:44.584Z,99.90
2018-11-01T12:41:13.066Z,99.90
2018-11-01T12:43:41.594Z,99.90
2018-11-01T12:46:10.128Z,99.90
2018-11-01T12:48:38.641Z,99.90
2018-11-01T12:51:07.168Z,99.90
2018-11-01T12:53:35.905Z,99.90
2018-11-01T12:56:04.445Z,99.90
2018-11-01T12:58:32.979Z,99.90
2018-11-01T13:01:01.461Z,99.90
2018-11-01T13:03:29.973Z,99.90
2018-11-01T13:05:59.026Z,99.90
2018-11-01T13:08:27.672Z,99.90
2018-11-01T13:10:56.297Z,99.90
2018-11-01T13:13:24.814Z,99.90
2018-11-01T13:15:53.301Z,99.90
2018-11-01T13:18:21.969Z,99.90
2018-11-01T13:20:50.444Z,99.90
2018-11-01T13:23:18.957Z,99.90
2018-11-01T13:25:47.637Z,99.90
2018-11-01T13:28:16.155Z,99.90
2018-11-01T13:30:44.645Z,99.90
2018-11-01T13:33:13.183Z,99.90
2018-11-01T13:35:41.673Z,99.90
2018-11-01T13:38:10.185Z,99.90
2018-11-01T13:40:38.940Z,99.90
2018-11-01T13:43:07.197Z,99.90
2018-11-01T13:45:35.710Z,99.90
2018-11-01T13:48:04.399Z,99.90
2018-11-01T13:50:32.733Z,99.90
2018-11-01T13:53:01.666Z,99.90
2018-11-01T13:55:30.145Z,99.90
2018-11-01T13:57:58.661Z,99.90
2018-11-01T14:00:27.152Z,99.90
2018-11-01T14:02:55.661Z,99.90
2018-11-01T14:05:24.144Z,99.90
2018-11-01T14:07:52.680Z,99.90
2018-11-01T14:10:21.158Z,99.90
2018-11-01T14:12:49.676Z,99.90
2018-11-01T14:15:18.646Z,99.90
2018-11-01T14:17:46.717Z,99.90
2018-11-01T14:20:15.248Z,99.90
2018-11-01T14:22:43.748Z,99.90
2018-11-01T14:25:13.253Z,99.90
2018-11-01T14:27:42.054Z,99.90
2018-11-01T14:30:13.472Z,99.90
2018-11-01T14:32:41.999Z,99.90
2018-11-01T14:35:11.429Z,99.90
2018-11-01T14:37:40.204Z,99.90
2018-11-01T14:40:10.841Z,99.90
2018-11-01T14:42:40.092Z,99.90
2018-11-01T14:45:09.237Z,99.90
2018-11-01T14:47:37.920Z,99.90
2018-11-01T14:50:07.325Z,99.90
2018-11-01T14:52:36.081Z,99.90
2018-11-01T14:55:05.856Z,99.90
2018-11-01T14:57:34.332Z,99.90
2018-11-01T15:00:01.877Z,99.90
2018-11-01T15:02:30.404Z,99.90
2018-11-01T15:04:58.933Z,99.90
2018-11-01T15:07:27.449Z,99.90
2018-11-01T15:09:56.006Z,99.90
2018-11-01T15:12:24.508Z,99.90
2018-11-01T15:14:53.021Z,99.90
2018-11-01T15:17:21.521Z,99.90
2018-11-01T15:19:50.050Z,99.90
2018-11-01T15:22:18.589Z,99.90
2018-11-01T15:24:47.188Z,99.90
2018-11-01T15:27:15.672Z,99.90
2018-11-01T15:29:44.193Z,99.90
2018-11-01T15:32:18.004Z,99.90
2018-11-01T15:34:46.670Z,99.90
2018-11-01T15:37:15.276Z,99.90
2018-11-01T15:39:43.908Z,99.90
2018-11-01T15:42:12.376Z,99.90
2018-11-01T15:44:40.904Z,99.90
2018-11-01T15:47:09.412Z,99.90
2018-11-01T15:49:37.956Z,99.90
2018-11-01T15:52:06.461Z,99.90
2018-11-01T15:54:34.993Z,99.90
2018-11-01T15:57:03.537Z,99.90
2018-11-01T15:59:32.162Z,99.90
2018-11-01T16:02:00.593Z,99.90
2018-11-01T16:04:29.122Z,99.90
2018-11-01T16:06:57.609Z,99.90
2018-11-01T16:09:26.120Z,99.90
2018-11-01T16:11:54.621Z,99.90
2018-11-01T16:14:23.156Z,99.90
2018-11-01T16:16:51.661Z,99.90
2018-11-01T16:19:20.242Z,99.90
2018-11-01T16:21:48.721Z,99.90
2018-11-01T16:24:17.261Z,99.90
2018-11-01T16:26:45.764Z,99.90
2018-11-01T16:29:14.528Z,99.90
2018-11-01T16:31:43.058Z,99.90
2018-11-01T16:34:11.577Z,99.90
2018-11-01T16:36:40.118Z,99.90
2018-11-01T16:39:10.434Z,99.90
2018-11-01T16:41:39.196Z,99.90
2018-11-01T16:44:08.001Z,99.90
2018-11-01T16:46:36.505Z,99.90
2018-11-01T16:49:05.405Z,99.90
2018-11-01T16:51:33.893Z,99.90
2018-11-01T16:54:02.401Z,99.90
2018-11-01T16:56:30.900Z,99.90
2018-11-01T16:58:59.431Z,99.90
2018-11-01T17:01:27.958Z,99.90
2018-11-01T17:03:56.472Z,99.90
2018-11-01T17:06:25.179Z,99.90
2018-11-01T17:08:53.681Z,99.90
2018-11-01T17:11:22.226Z,99.90
2018-11-01T17:13:50.759Z,99.90
2018-11-01T17:16:19.661Z,99.90
2018-11-01T17:18:48.689Z,99.90
2018-11-01T17:21:17.186Z,99.90
2018-11-01T17:23:45.720Z,99.90
2018-11-01T17:26:14.236Z,99.90
2018-11-01T17:28:42.760Z,99.90
2018-11-01T17:31:11.362Z,99.90
2018-11-01T17:33:39.927Z,99.90
2018-11-01T17:36:08.417Z,99.90
2018-11-01T17:38:36.951Z,99.90
2018-11-01T17:41:05.470Z,99.90
2018-11-01T17:43:34.819Z,99.90
2018-11-01T17:46:03.371Z,99.90
2018-11-01T17:48:31.818Z,99.90
2018-11-01T17:51:00.330Z,99.90
2018-11-01T17:53:28.865Z,99.90
2018-11-01T17:55:57.373Z,99.90
2018-11-01T17:58:25.876Z,99.90
2018-11-01T18:00:54.429Z,99.90
2018-11-01T18:03:22.945Z,99.90
2018-11-01T18:05:51.525Z,99.90
2018-11-01T18:08:20.107Z,99.90
2018-11-01T18:10:48.633Z,99.90
2018-11-01T18:13:17.141Z,99.90
2018-11-01T18:15:45.676Z,99.90
2018-11-01T18:18:14.202Z,99.90
2018-11-01T18:20:42.740Z,99.90
2018-11-01T18:23:11.342Z,99.90
2018-11-01T18:25:45.291Z,99.90
2018-11-01T18:28:13.776Z,99.90
2018-11-01T18:30:42.310Z,99.90
2018-11-01T18:33:10.923Z,99.90
2018-11-01T18:35:39.393Z,99.90
2018-11-01T18:38:07.904Z,99.90
2018-11-01T18:40:36.437Z,99.90
2018-11-01T18:43:05.649Z,99.90
2018-11-01T18:45:34.189Z,99.90
2018-11-01T18:48:02.681Z,99.90
2018-11-01T18:50:31.205Z,99.90
2018-11-01T18:52:59.713Z,99.90
2018-11-01T18:55:28.257Z,99.90
2018-11-01T18:57:56.780Z,99.90
2018-11-01T19:00:25.335Z,99.90
2018-11-01T19:02:53.833Z,99.90
2018-11-01T19:05:22.365Z,99.90
2018-11-01T19:07:50.869Z,99.90
2018-11-01T19:10:19.413Z,99.90
2018-11-01T19:12:47.916Z,99.90
2018-11-01T19:15:16.789Z,99.90
2018-11-01T19:17:45.282Z,99.90
2018-11-01T19:20:14.005Z,99.90
2018-11-01T19:22:42.500Z,99.90
2018-11-01T19:25:11.486Z,99.90
2018-11-01T19:27:40.038Z,99.90
2018-11-01T19:30:10.382Z,99.90
2018-11-01T19:32:38.917Z,99.90
2018-11-01T19:35:08.785Z,99.90
2018-11-01T19:37:37.333Z,99.90
2018-11-01T19:40:09.786Z,99.90
2018-11-01T19:42:38.265Z,99.90
2018-11-01T19:45:08.163Z,99.90
2018-11-01T19:47:36.913Z,99.90
2018-11-01T19:50:06.245Z,99.90
2018-11-01T19:52:34.748Z,99.90
2018-11-01T19:55:03.319Z,99.90
2018-11-01T19:57:31.833Z,99.90
2018-11-01T20:00:00.786Z,99.90
2018-11-01T20:02:29.429Z,99.90
2018-11-01T20:04:57.969Z,99.90
2018-11-01T20:07:26.777Z,99.90
2018-11-01T20:09:55.272Z,99.90
2018-11-01T20:12:23.796Z,99.90
2018-11-01T20:14:52.341Z,99.90
2018-11-01T20:17:20.824Z,99.90
2018-11-01T20:19:49.345Z,99.90
2018-11-01T20:22:17.833Z,99.90
2018-11-01T20:24:46.329Z,99.90
2018-11-01T20:27:14.857Z,99.90
2018-11-01T20:29:43.345Z,99.90
2018-11-01T20:32:11.903Z,99.90
2018-11-01T20:34:40.397Z,99.90
2018-11-01T20:37:08.924Z,99.90
2018-11-01T20:39:37.421Z,99.90
2018-11-01T20:42:05.993Z,99.90
2018-11-01T20:44:34.476Z,99.90
2018-11-01T20:47:03.059Z,99.90
2018-11-01T20:49:31.548Z,99.90
2018-11-01T20:52:00.083Z,99.90
2018-11-01T20:54:28.585Z,99.90
2018-11-01T20:56:57.129Z,99.90
2018-11-01T20:59:25.661Z,99.90
2018-11-01T21:01:54.198Z,99.90
2018-11-01T21:04:22.749Z,99.90
2018-11-01T21:06:51.265Z,99.90
2018-11-01T21:09:19.797Z,99.90
2018-11-01T21:11:48.477Z,99.90
2018-11-01T21:14:16.843Z,99.90
2018-11-01T21:16:45.387Z,99.90
2018-11-01T21:19:13.873Z,99.90
2018-11-01T21:21:42.397Z,99.90
2018-11-01T21:24:10.888Z,99.90
2018-11-01T21:26:39.413Z,99.90
2018-11-01T21:29:07.921Z,99.90
2018-11-01T21:31:36.456Z,99.90
2018-11-01T21:34:05.073Z,99.90
2018-11-01T21:36:33.602Z,99.90
2018-11-01T21:39:02.086Z,99.90
2018-11-01T21:41:30.604Z,99.90
2018-11-01T21:43:59.106Z,99.90
2018-11-01T21:46:27.640Z,99.90
2018-11-01T21:48:56.124Z,99.90
2018-11-01T21:51:24.653Z,99.90
2018-11-01T21:53:53.428Z,99.90
2018-11-01T21:56:21.976Z,99.90
2018-11-01T21:58:50.488Z,99.90
2018-11-01T22:01:19.000Z,99.90
2018-11-01T22:03:47.489Z,99.90
2018-11-01T22:06:16.021Z,99.90
2018-11-01T22:08:44.509Z,99.90
2018-11-01T22:11:13.039Z,99.90
2018-11-01T22:13:41.527Z,99.90
2018-11-01T22:16:10.022Z,99.90
2018-11-01T22:18:38.554Z,99.90
2018-11-01T22:21:07.072Z,99.90
2018-11-01T22:23:35.626Z,99.90
2018-11-01T22:26:04.113Z,99.90
2018-11-01T22:28:32.687Z,99.90
2018-11-01T22:31:01.132Z,99.90
2018-11-01T22:33:29.681Z,99.90
2018-11-01T22:35:58.205Z,99.90
2018-11-01T22:38:26.792Z,99.90
2018-11-01T22:40:55.273Z,99.90
2018-11-01T22:43:23.765Z,99.90
2018-11-01T22:45:52.295Z,99.90
2018-11-01T22:48:20.829Z,99.90
2018-11-01T22:50:49.345Z,99.90
2018-11-01T22:53:17.829Z,99.90
2018-11-01T22:55:46.373Z,99.90
2018-11-01T22:58:14.873Z,99.90
2018-11-01T23:00:44.809Z,99.90
2018-11-01T23:03:13.740Z,99.90
2018-11-01T23:05:42.289Z,99.90
2018-11-01T23:08:11.045Z,99.90
2018-11-01T23:10:39.545Z,99.90
2018-11-01T23:13:08.060Z,99.90
2018-11-01T23:15:36.544Z,99.90
2018-11-01T23:18:05.128Z,99.90
2018-11-01T23:20:33.620Z,99.90
2018-11-01T23:23:02.152Z,99.90
2018-11-01T23:25:30.640Z,99.90
2018-11-01T23:27:59.177Z,99.90
2018-11-01T23:30:27.665Z,99.90
2018-11-01T23:32:56.300Z,99.90
2018-11-01T23:35:24.720Z,99.90
2018-11-01T23:37:58.695Z,99.90
2018-11-01T23:40:32.513Z,99.90
2018-11-01T23:43:06.469Z,99.90
2018-11-01T23:45:40.425Z,99.90
2018-11-01T23:48:08.105Z,99.90
2018-11-01T23:50:42.651Z,99.90
2018-11-01T23:53:16.589Z,99.90
2018-11-01T23:55:45.120Z,99.90
2018-11-01T23:58:13.705Z,99.90
